createdAt,value
2022-09-02T00:01:38.050Z,91.92
2022-09-02T00:04:11.123Z,91.80
2022-09-02T00:06:38.022Z,91.92
2022-09-02T00:09:07.093Z,92.18
2022-09-02T00:11:35.807Z,92.73
2022-09-02T00:14:06.847Z,92.75
2022-09-02T00:16:33.858Z,92.39
2022-09-02T00:19:02.565Z,91.67
2022-09-02T00:21:31.422Z,92.09
2022-09-02T00:23:58.055Z,92.43
2022-09-02T00:26:24.957Z,92.27
2022-09-02T00:28:55.865Z,91.82
2022-09-02T00:31:24.762Z,92.29
2022-09-02T00:33:51.923Z,91.80
2022-09-02T00:36:18.689Z,91.92
2022-09-02T00:38:45.435Z,91.59
2022-09-02T00:41:12.786Z,91.65
2022-09-02T00:43:45.894Z,92.33
2022-09-02T00:46:15.794Z,92.23
2022-09-02T00:48:48.314Z,92.06
2022-09-02T00:51:16.459Z,92.26
2022-09-02T00:53:45.562Z,91.93
2022-09-02T00:56:19.018Z,91.89
2022-09-02T00:58:46.178Z,90.74
2022-09-02T01:01:13.379Z,91.43
2022-09-02T01:03:41.699Z,91.21
2022-09-02T01:06:10.324Z,91.50
2022-09-02T01:08:39.284Z,91.33
2022-09-02T01:11:06.876Z,91.21
2022-09-02T01:13:38.783Z,91.63
2022-09-02T01:16:24.744Z,91.55
2022-09-02T01:18:55.761Z,91.00
2022-09-02T01:21:23.745Z,90.78
2022-09-02T01:23:52.274Z,90.38
2022-09-02T01:26:19.877Z,91.32
2022-09-02T01:28:47.295Z,90.03
2022-09-02T01:31:14.294Z,90.12
2022-09-02T01:33:40.978Z,90.82
2022-09-02T01:36:10.101Z,91.31
2022-09-02T01:38:37.201Z,90.98
2022-09-02T01:41:03.893Z,91.77
2022-09-02T01:43:30.536Z,90.86
2022-09-02T01:45:59.579Z,91.05
2022-09-02T01:48:26.271Z,90.42
2022-09-02T01:51:00.266Z,91.06
2022-09-02T01:53:27.678Z,91.06
2022-09-02T01:55:54.760Z,90.36
2022-09-02T01:58:22.046Z,91.78
2022-09-02T02:00:48.796Z,90.54
2022-09-02T02:03:15.775Z,90.63
2022-09-02T02:05:42.699Z,91.04
2022-09-02T02:08:09.878Z,90.60
2022-09-02T02:10:37.133Z,91.59
2022-09-02T02:13:04.091Z,91.12
2022-09-02T02:17:56.702Z,91.83
2022-09-02T02:20:24.438Z,91.71
2022-09-02T02:22:51.180Z,91.66
2022-09-02T02:25:18.895Z,92.11
2022-09-02T02:27:45.851Z,92.33
2022-09-02T02:30:14.877Z,91.75
2022-09-02T02:32:42.324Z,92.35
2022-09-02T02:35:09.726Z,92.58
2022-09-02T02:37:36.469Z,92.03
2022-09-02T02:40:05.518Z,92.27
2022-09-02T02:42:32.241Z,92.80
2022-09-02T02:44:59.117Z,92.27
2022-09-02T02:47:26.856Z,92.33
2022-09-02T02:49:53.714Z,92.78
2022-09-02T02:52:20.800Z,92.86
2022-09-02T02:54:47.455Z,92.75
2022-09-02T02:57:14.354Z,92.54
2022-09-02T02:59:41.087Z,92.10
2022-09-02T03:02:08.098Z,92.58
2022-09-02T03:04:35.201Z,91.94
2022-09-02T03:07:02.607Z,92.33
2022-09-02T03:09:29.454Z,91.35
2022-09-02T03:11:56.086Z,91.30
2022-09-02T03:14:22.720Z,91.54
2022-09-02T03:16:49.646Z,91.72
2022-09-02T03:19:16.311Z,91.20
2022-09-02T03:21:43.002Z,92.28
2022-09-02T03:24:11.766Z,91.38
2022-09-02T03:26:38.951Z,91.18
2022-09-02T03:29:05.783Z,90.82
2022-09-02T03:31:32.577Z,90.92
2022-09-02T03:33:59.402Z,90.55
2022-09-02T03:36:33.339Z,91.10
2022-09-02T03:39:01.058Z,90.96
2022-09-02T03:41:28.050Z,90.92
2022-09-02T03:43:54.708Z,91.58
2022-09-02T03:46:21.419Z,90.72
2022-09-02T03:48:50.298Z,91.87
2022-09-02T03:51:17.153Z,91.86
2022-09-02T03:53:44.072Z,92.65
2022-09-02T03:56:14.194Z,92.57
2022-09-02T03:58:42.293Z,93.15
2022-09-02T04:01:12.675Z,93.60
2022-09-02T04:03:39.473Z,93.69
2022-09-02T04:06:10.347Z,94.63
2022-09-02T04:08:37.143Z,94.26
2022-09-02T04:11:13.138Z,94.40
2022-09-02T04:13:39.854Z,94.95
2022-09-02T04:16:11.776Z,95.12
2022-09-02T04:18:38.550Z,95.33
2022-09-02T04:21:05.967Z,95.27
2022-09-02T04:23:33.346Z,95.69
2022-09-02T04:26:04.790Z,95.43
2022-09-02T04:28:31.678Z,96.43
2022-09-02T04:30:58.517Z,94.97
2022-09-02T04:33:25.342Z,94.64
2022-09-02T04:35:52.485Z,93.85
2022-09-02T04:38:19.193Z,93.82
2022-09-02T04:40:47.562Z,93.67
2022-09-02T04:43:14.865Z,94.12
2022-09-02T04:45:44.574Z,93.94
2022-09-02T04:48:12.235Z,93.97
2022-09-02T04:50:40.633Z,94.51
2022-09-02T04:53:07.725Z,93.28
2022-09-02T04:55:34.659Z,93.82
2022-09-02T04:58:01.783Z,93.79
2022-09-02T05:00:28.612Z,93.76
2022-09-02T05:02:55.904Z,94.37
2022-09-02T05:05:23.055Z,94.72
2022-09-02T05:07:49.869Z,96.10
2022-09-02T05:10:16.635Z,95.32
2022-09-02T05:12:43.545Z,95.66
2022-09-02T05:15:12.037Z,95.81
2022-09-02T05:17:39.279Z,95.32
2022-09-02T05:20:07.565Z,95.64
2022-09-02T05:22:37.558Z,94.93
2022-09-02T05:25:07.550Z,95.04
2022-09-02T05:27:34.691Z,95.70
2022-09-02T05:30:02.404Z,95.95
2022-09-02T05:32:29.430Z,95.01
2022-09-02T05:34:56.304Z,95.21
2022-09-02T05:37:24.596Z,94.32
2022-09-02T05:39:52.761Z,94.19
2022-09-02T05:42:20.637Z,95.09
2022-09-02T05:44:47.610Z,94.87
2022-09-02T05:47:14.414Z,94.94
2022-09-02T05:49:41.119Z,95.08
2022-09-02T05:52:10.279Z,95.47
2022-09-02T05:54:39.022Z,94.98
2022-09-02T05:57:14.672Z,94.25
2022-09-02T05:59:42.667Z,94.61
2022-09-02T06:02:10.670Z,93.89
2022-09-02T06:04:43.406Z,93.59
2022-09-02T06:07:13.994Z,93.41
2022-09-02T06:09:41.328Z,93.92
2022-09-02T06:12:08.541Z,93.20
2022-09-02T06:14:35.426Z,91.66
2022-09-02T06:17:02.370Z,92.91
2022-09-02T06:19:32.693Z,92.07
2022-09-02T06:22:01.219Z,92.78
2022-09-02T06:24:29.375Z,91.77
2022-09-02T06:27:01.799Z,91.98
2022-09-02T06:29:29.090Z,92.86
2022-09-02T06:31:55.970Z,92.31
2022-09-02T06:34:25.489Z,92.45
2022-09-02T06:36:52.355Z,90.16
2022-09-02T06:39:21.118Z,89.73
2022-09-02T06:41:49.067Z,88.84
2022-09-02T06:44:16.646Z,85.87
2022-09-02T06:46:47.821Z,84.26
2022-09-02T06:49:16.543Z,83.64
2022-09-02T06:51:47.986Z,83.59
2022-09-02T06:54:18.075Z,83.36
2022-09-02T06:56:49.702Z,83.05
2022-09-02T06:59:18.457Z,80.70
2022-09-02T07:01:45.982Z,80.70
2022-09-02T07:04:31.573Z,80.68
2022-09-02T07:06:58.640Z,80.38
2022-09-02T07:09:31.355Z,79.12
2022-09-02T07:12:04.357Z,79.59
2022-09-02T07:14:36.692Z,80.04
2022-09-02T07:17:03.781Z,78.69
2022-09-02T07:19:30.715Z,78.95
2022-09-02T07:21:57.409Z,78.73
2022-09-02T07:24:24.137Z,79.21
2022-09-02T07:26:55.431Z,79.34
2022-09-02T07:29:23.295Z,77.39
2022-09-02T07:31:50.256Z,78.64
2022-09-02T07:34:18.790Z,78.59
2022-09-02T07:36:46.568Z,76.59
2022-09-02T07:39:15.439Z,78.53
2022-09-02T07:41:43.880Z,78.57
2022-09-02T07:44:11.222Z,77.46
2022-09-02T07:46:38.787Z,78.60
2022-09-02T07:49:09.326Z,78.26
2022-09-02T07:51:40.354Z,77.19
2022-09-02T07:54:09.981Z,78.17
2022-09-02T07:56:36.671Z,77.28
2022-09-02T07:59:03.863Z,76.69
2022-09-02T08:01:31.192Z,75.57
2022-09-02T08:04:00.350Z,75.28
2022-09-02T08:06:34.491Z,73.64
2022-09-02T08:09:06.776Z,75.57
2022-09-02T08:11:39.013Z,75.95
2022-09-02T08:14:12.025Z,75.29
2022-09-02T08:16:40.110Z,74.67
2022-09-02T08:19:08.397Z,74.67
2022-09-02T08:21:35.479Z,75.21
2022-09-02T08:24:02.426Z,74.74
2022-09-02T08:26:29.997Z,75.11
2022-09-02T08:28:56.831Z,73.51
2022-09-02T08:31:24.170Z,71.74
2022-09-02T08:33:51.279Z,72.81
2022-09-02T08:36:17.971Z,72.36
2022-09-02T08:38:45.053Z,72.22
2022-09-02T08:41:47.567Z,71.00
2022-09-02T08:44:22.734Z,68.55
2022-09-02T08:46:53.881Z,69.96
2022-09-02T08:49:34.763Z,68.47
2022-09-02T08:52:05.037Z,68.79
2022-09-02T08:54:44.077Z,66.49
2022-09-02T08:57:11.410Z,69.88
2022-09-02T09:02:35.734Z,66.35
2022-09-02T09:05:33.789Z,68.20
2022-09-02T09:08:53.678Z,67.38
2022-09-02T09:11:42.799Z,66.13
2022-09-02T09:14:40.610Z,66.90
2022-09-02T09:17:18.159Z,68.12
2022-09-02T09:19:54.653Z,67.85
2022-09-02T09:22:29.764Z,65.70
2022-09-02T09:24:57.781Z,63.64
2022-09-02T09:27:24.596Z,64.10
2022-09-02T09:29:52.587Z,65.35
2022-09-02T09:32:35.945Z,63.82
2022-09-02T09:35:07.844Z,64.77
2022-09-02T09:37:43.314Z,63.63
2022-09-02T09:40:42.110Z,65.17
2022-09-02T09:43:15.636Z,63.52
2022-09-02T09:45:45.859Z,64.91
2022-09-02T09:48:30.685Z,62.49
2022-09-02T09:51:17.545Z,62.82
2022-09-02T09:53:44.757Z,61.63
2022-09-02T09:56:30.513Z,61.58
2022-09-02T09:58:57.208Z,61.19
2022-09-02T10:01:35.374Z,60.76
2022-09-02T10:04:42.191Z,61.95
2022-09-02T10:06:58.669Z,60.68
2022-09-02T10:09:34.830Z,62.23
2022-09-02T10:12:06.925Z,60.64
2022-09-02T10:14:59.927Z,58.98
2022-09-02T10:18:16.992Z,59.28
2022-09-02T10:21:15.410Z,60.51
2022-09-02T10:24:01.582Z,58.85
2022-09-02T10:26:38.167Z,57.69
2022-09-02T10:29:44.937Z,58.14
2022-09-02T10:32:46.666Z,56.09
2022-09-02T10:35:42.802Z,55.88
2022-09-02T10:38:35.102Z,54.08
2022-09-02T10:41:47.875Z,53.60
2022-09-02T10:44:17.623Z,55.30
2022-09-02T10:47:01.690Z,55.80
2022-09-02T10:49:57.985Z,54.39
2022-09-02T10:52:47.721Z,55.49
2022-09-02T10:59:05.650Z,54.43
2022-09-02T11:01:41.806Z,54.31
2022-09-02T11:04:40.522Z,54.66
2022-09-02T11:07:12.158Z,52.59
2022-09-02T11:09:55.351Z,54.02
2022-09-02T11:12:47.261Z,54.25
2022-09-02T11:15:35.973Z,55.92
2022-09-02T11:18:45.049Z,55.24
2022-09-02T11:21:48.237Z,54.80
2022-09-02T11:24:22.098Z,55.25
2022-09-02T11:30:22.331Z,52.88
2022-09-02T11:33:18.409Z,51.17
2022-09-02T11:35:45.125Z,52.87
2022-09-02T11:39:10.653Z,52.80
2022-09-02T12:11:43.294Z,52.00
2022-09-02T12:14:31.778Z,53.60
2022-09-02T12:17:05.985Z,52.32
2022-09-02T12:19:58.968Z,50.70
2022-09-02T12:22:32.735Z,53.26
2022-09-02T12:25:03.472Z,53.02
2022-09-02T12:27:36.736Z,50.40
2022-09-02T12:30:13.132Z,51.30
2022-09-02T12:33:13.444Z,53.24
2022-09-02T12:35:51.619Z,53.02
2022-09-02T12:38:48.709Z,52.67
2022-09-02T12:41:22.847Z,53.43
2022-09-02T12:44:00.869Z,54.36
2022-09-02T12:46:54.808Z,53.64
2022-09-02T12:49:43.101Z,53.82
2022-09-02T12:52:29.651Z,54.29
2022-09-02T12:54:56.810Z,53.22
2022-09-02T12:57:39.505Z,52.90
2022-09-02T13:00:07.116Z,50.45
2022-09-02T13:03:10.547Z,52.76
2022-09-02T13:06:05.742Z,53.32
2022-09-02T13:09:01.382Z,51.97
2022-09-02T13:12:07.022Z,51.78
2022-09-02T13:15:07.490Z,51.43
2022-09-02T13:18:25.122Z,51.74
2022-09-02T13:21:41.095Z,52.90
2022-09-02T13:25:02.997Z,53.20
2022-09-02T13:27:58.454Z,53.13
2022-09-02T13:31:06.261Z,52.51
2022-09-02T13:33:33.429Z,51.49
2022-09-02T13:36:00.181Z,48.26
2022-09-02T13:38:29.679Z,50.29
2022-09-02T13:40:56.434Z,52.07
2022-09-02T13:43:26.154Z,51.85
2022-09-02T13:45:59.169Z,51.77
2022-09-02T13:48:32.265Z,51.81
2022-09-02T13:51:17.297Z,52.56
2022-09-02T13:56:35.431Z,50.88
2022-09-02T13:59:02.301Z,52.19
2022-09-02T14:01:32.716Z,50.56
2022-09-02T14:06:38.757Z,52.63
2022-09-02T14:09:08.854Z,50.01
2022-09-02T14:11:42.730Z,51.57
2022-09-02T14:14:14.402Z,51.09
2022-09-02T14:16:41.193Z,51.76
2022-09-02T14:19:29.529Z,51.25
2022-09-02T14:21:59.196Z,52.36
2022-09-02T14:24:30.907Z,51.87
2022-09-02T14:26:59.643Z,51.74
2022-09-02T14:29:29.907Z,53.03
2022-09-02T14:32:05.652Z,53.28
2022-09-02T14:34:38.374Z,52.41
2022-09-02T14:37:34.371Z,52.70
2022-09-02T14:40:12.088Z,53.75
2022-09-02T14:42:57.521Z,53.00
2022-09-02T14:45:33.324Z,54.50
2022-09-02T14:48:13.754Z,53.25
2022-09-02T14:50:41.607Z,53.52
2022-09-02T14:53:11.044Z,54.47
2022-09-02T14:56:05.076Z,54.17
2022-09-02T14:58:31.827Z,52.73
2022-09-02T15:01:00.594Z,55.04
2022-09-02T15:03:29.265Z,53.65
2022-09-02T15:05:55.943Z,53.49
2022-09-02T15:08:23.355Z,53.83
2022-09-02T15:10:50.715Z,54.80
2022-09-02T15:13:34.016Z,54.15
2022-09-02T15:16:01.904Z,55.24
2022-09-02T15:18:28.556Z,55.70
2022-09-02T15:20:55.413Z,55.22
2022-09-02T15:23:22.618Z,55.26
2022-09-02T15:25:49.426Z,56.07
2022-09-02T15:28:16.201Z,55.53
2022-09-02T15:30:42.837Z,55.30
2022-09-02T15:33:14.642Z,55.67
2022-09-02T15:35:46.652Z,56.45
2022-09-02T15:38:13.270Z,54.54
2022-09-02T15:40:40.062Z,56.97
2022-09-02T15:43:06.730Z,57.15
2022-09-02T15:45:33.613Z,58.24
2022-09-02T15:48:00.637Z,57.30
2022-09-02T15:50:32.236Z,56.42
2022-09-02T15:53:00.986Z,56.41
2022-09-02T15:55:29.445Z,56.80
2022-09-02T15:57:56.939Z,57.86
2022-09-02T16:00:27.731Z,58.63
2022-09-02T16:02:56.988Z,56.13
2022-09-02T16:05:24.247Z,57.28
2022-09-02T16:07:52.186Z,56.85
2022-09-02T16:10:19.037Z,57.36
2022-09-02T16:12:46.053Z,57.45
2022-09-02T16:15:12.685Z,57.49
2022-09-02T16:17:39.336Z,57.49
2022-09-02T16:20:06.473Z,57.98
2022-09-02T16:22:33.336Z,57.84
2022-09-02T16:25:01.891Z,57.30
2022-09-02T16:27:47.466Z,58.88
2022-09-02T16:30:14.158Z,58.59
2022-09-02T16:32:40.862Z,59.21
2022-09-02T16:35:08.703Z,58.79
2022-09-02T16:37:35.379Z,59.65
2022-09-02T16:40:03.700Z,57.77
2022-09-02T16:42:33.804Z,58.20
2022-09-02T16:45:03.258Z,59.33
2022-09-02T16:47:31.789Z,59.29
2022-09-02T16:49:58.573Z,60.32
2022-09-02T16:52:25.245Z,60.23
2022-09-02T16:54:51.921Z,58.49
2022-09-02T16:57:18.589Z,60.30
2022-09-02T16:59:45.242Z,59.21
2022-09-02T17:02:11.877Z,59.76
2022-09-02T17:04:38.822Z,60.70
2022-09-02T17:07:05.481Z,60.05
2022-09-02T17:09:32.201Z,60.74
2022-09-02T17:11:59.079Z,60.01
2022-09-02T17:14:25.703Z,60.62
2022-09-02T17:16:52.608Z,61.57
2022-09-02T17:19:24.461Z,62.12
2022-09-02T17:21:54.928Z,61.35
2022-09-02T17:24:24.293Z,61.49
2022-09-02T17:26:55.820Z,61.80
2022-09-02T17:32:11.966Z,62.45
2022-09-02T17:34:38.589Z,62.82
2022-09-02T17:37:05.683Z,63.27
2022-09-02T17:39:33.943Z,63.31
2022-09-02T17:42:01.844Z,63.60
2022-09-02T17:44:37.636Z,63.78
2022-09-02T17:47:10.277Z,64.17
2022-09-02T17:49:38.793Z,64.04
2022-09-02T17:52:07.607Z,64.59
2022-09-02T17:54:39.565Z,65.01
2022-09-02T17:57:49.699Z,64.83
2022-09-02T18:00:22.355Z,65.33
2022-09-02T18:03:14.752Z,65.17
2022-09-02T18:06:05.473Z,65.54
2022-09-02T18:08:54.686Z,65.53
2022-09-02T18:11:22.560Z,66.05
2022-09-02T18:14:40.881Z,65.95
2022-09-02T18:17:26.249Z,65.80
2022-09-02T18:20:19.587Z,65.97
2022-09-02T18:23:06.465Z,65.62
2022-09-02T18:26:17.611Z,66.07
2022-09-02T18:29:13.654Z,65.75
2022-09-02T18:32:08.646Z,66.63
2022-09-02T18:35:33.527Z,66.26
2022-09-02T18:38:41.625Z,66.60
2022-09-02T18:41:47.759Z,66.88
2022-09-02T18:45:05.482Z,67.07
2022-09-02T18:47:36.483Z,67.57
2022-09-02T18:50:05.775Z,67.43
2022-09-02T18:52:33.239Z,67.87
2022-09-02T18:55:20.473Z,68.46
2022-09-02T18:58:00.244Z,68.54
2022-09-02T19:00:28.381Z,69.41
2022-09-02T19:03:03.697Z,69.24
2022-09-02T19:05:32.644Z,69.77
2022-09-02T19:08:24.199Z,70.04
2022-09-02T19:11:25.807Z,70.80
2022-09-02T19:13:55.640Z,71.08
2022-09-02T19:16:28.177Z,71.43
2022-09-02T19:18:55.315Z,71.76
2022-09-02T19:21:48.047Z,71.93
2022-09-02T19:24:17.003Z,72.39
2022-09-02T19:26:44.868Z,72.35
2022-09-02T19:29:16.071Z,72.63
2022-09-02T19:31:44.234Z,72.49
2022-09-02T19:34:11.027Z,73.18
2022-09-02T19:36:41.775Z,73.24
2022-09-02T19:39:08.615Z,73.41
2022-09-02T19:41:35.247Z,73.96
2022-09-02T19:44:02.018Z,73.99
2022-09-02T19:47:11.833Z,73.89
2022-09-02T19:49:16.044Z,73.71
2022-09-02T19:51:43.319Z,74.33
2022-09-02T19:54:14.347Z,74.50
2022-09-02T19:56:41.949Z,74.68
2022-09-02T19:59:08.753Z,74.65
2022-09-02T20:01:36.318Z,74.95
2022-09-02T20:04:04.445Z,75.10
2022-09-02T20:06:31.113Z,75.48
2022-09-02T20:08:57.919Z,75.32
2022-09-02T20:11:24.684Z,76.10
2022-09-02T20:13:51.555Z,76.60
2022-09-02T20:16:21.836Z,76.58
2022-09-02T20:18:51.103Z,76.34
2022-09-02T20:21:29.954Z,76.04
2022-09-02T20:24:07.415Z,76.49
2022-09-02T20:27:22.002Z,76.58
2022-09-02T20:30:11.825Z,76.51
2022-09-02T20:33:12.938Z,76.02
2022-09-02T20:36:20.041Z,76.15
2022-09-02T20:39:18.186Z,76.34
2022-09-02T20:42:25.619Z,76.00
2022-09-02T20:45:12.770Z,75.84
2022-09-02T20:48:15.611Z,75.95
2022-09-02T20:51:08.221Z,75.54
2022-09-02T20:54:04.970Z,75.71
2022-09-02T20:56:50.321Z,75.13
2022-09-02T20:59:46.201Z,74.04
2022-09-02T21:02:14.805Z,74.80
2022-09-02T21:04:51.377Z,74.05
2022-09-02T21:07:24.297Z,73.83
2022-09-02T21:10:14.704Z,74.08
2022-09-02T21:13:06.053Z,73.29
2022-09-02T21:15:45.340Z,72.97
2022-09-02T21:19:13.652Z,72.94
2022-09-02T21:21:50.270Z,72.88
2022-09-02T21:24:36.898Z,72.56
2022-09-02T21:27:23.693Z,72.86
2022-09-02T21:30:02.823Z,73.25
2022-09-02T21:32:54.935Z,72.81
2022-09-02T21:35:27.260Z,73.13
2022-09-02T21:37:59.086Z,73.44
2022-09-02T21:40:43.718Z,74.12
2022-09-02T21:43:41.779Z,74.81
2022-09-02T21:46:18.506Z,74.21
2022-09-02T21:49:01.768Z,74.66
2022-09-02T21:51:36.596Z,74.49
2022-09-02T21:54:43.881Z,74.75
2022-09-02T21:57:28.986Z,74.55
2022-09-02T22:00:01.171Z,74.14
2022-09-02T22:03:09.465Z,73.73
2022-09-02T22:06:03.040Z,74.13
2022-09-02T22:09:03.566Z,73.89
2022-09-02T22:11:57.224Z,73.25
2022-09-02T22:14:34.529Z,73.45
2022-09-02T22:17:30.454Z,72.77
2022-09-02T22:19:59.314Z,73.37
2022-09-02T22:22:38.850Z,73.21
2022-09-02T22:25:15.625Z,73.56
2022-09-02T22:28:06.698Z,73.29
2022-09-02T22:30:36.806Z,73.42
2022-09-02T22:33:08.067Z,73.38
2022-09-02T22:36:00.750Z,73.64
2022-09-02T22:38:38.009Z,75.97
2022-09-02T22:41:26.322Z,77.05
2022-09-02T22:44:17.597Z,76.60
2022-09-02T22:47:18.594Z,78.16
2022-09-02T22:50:08.643Z,78.18
2022-09-02T22:52:47.326Z,79.10
2022-09-02T22:55:46.423Z,79.42
2022-09-02T22:58:28.959Z,79.09
2022-09-02T23:01:23.046Z,80.12
2022-09-02T23:04:29.539Z,81.89
2022-09-02T23:07:01.110Z,82.45
2022-09-02T23:09:28.212Z,82.05
2022-09-02T23:12:41.398Z,82.43
2022-09-02T23:15:17.992Z,81.65
2022-09-02T23:18:08.608Z,81.35
2022-09-02T23:21:02.183Z,79.97
2022-09-02T23:23:47.464Z,79.96
2022-09-02T23:26:45.481Z,79.97
2022-09-02T23:29:24.255Z,79.91
2022-09-02T23:32:04.338Z,80.71
2022-09-02T23:34:58.522Z,82.90
2022-09-02T23:38:07.244Z,85.14
2022-09-02T23:41:06.559Z,86.05
2022-09-02T23:43:33.308Z,87.05
2022-09-02T23:46:14.434Z,87.54
2022-09-02T23:48:59.815Z,87.86
2022-09-02T23:52:07.904Z,87.95
2022-09-02T23:54:50.579Z,88.51
2022-09-02T23:57:50.727Z,88.12
